Time;durP1;ratioP1;P1;durP2;ratioP2;P2;SDS_P1;SDS_P2;PMS_P1;PMS_P2;Temp;Humidity;BMP_temperature;BMP_pressure;BME280_temperature;BME280_humidity;BME280_pressure;Samples;Min_cycle;Max_cycle;Signal;HPM_P1;HPM_P2
2022/06/29 00:00:04;;;;;;;5.88;3.00;;;;;;;20.02;100.00;99448.69;6302976;22;20074;-79
2022/06/29 00:02:32;;;;;;;;;;;;;;;20.03;100.00;99442.28;6302934;22;20340;-77
2022/06/29 00:04:58;;;;;;;6.55;2.90;;;;;;;19.96;100.00;99430.78;6302938;22;19917;-78
2022/06/29 00:07:24;;;;;;;5.13;3.13;;;;;;;19.83;100.00;99424.59;6275562;22;20018;-77
2022/06/29 00:09:54;;;;;;;4.40;2.60;;;;;;;19.87;100.00;99415.94;6302513;22;20018;-79
2022/06/29 00:12:20;;;;;;;4.40;3.13;;;;;;;19.93;100.00;99420.47;6275296;22;20015;-79
2022/06/29 00:14:46;;;;;;;5.63;3.08;;;;;;;19.96;100.00;99413.88;6275075;22;20018;-77
2022/06/29 00:17:13;;;;;;;7.28;3.38;;;;;;;19.98;100.00;99423.34;6302709;22;20014;-78
2022/06/29 00:19:40;;;;;;;4.18;2.67;;;;;;;19.96;100.00;99413.88;6275349;22;20011;-77
2022/06/29 00:22:07;;;;;;;6.80;2.85;;;;;;;19.94;100.00;99421.28;6302434;22;20094;-78
2022/06/29 00:24:33;;;;;;;4.32;2.92;;;;;;;19.85;100.00;99412.63;6300323;22;20014;-77
2022/06/29 00:27:02;;;;;;;5.45;3.35;;;;;;;19.69;100.00;99429.09;6273551;22;20035;-75
2022/06/29 00:29:29;;;;;;;4.38;3.20;;;;;;;19.56;100.00;99415.69;6274080;22;20400;-78
2022/06/29 00:31:55;;;;;;;6.68;4.13;;;;;;;19.51;100.00;99416.31;6302592;22;20372;-77
2022/06/29 00:34:20;;;;;;;6.05;3.20;;;;;;;19.55;100.00;99420.25;6302246;22;20069;-77
2022/06/29 00:36:46;;;;;;;5.45;3.13;;;;;;;19.60;100.00;99424.97;6302579;22;20017;-77
2022/06/29 00:39:15;;;;;;;5.43;3.63;;;;;;;19.67;100.00;99415.09;6302525;22;20102;-77
2022/06/29 00:41:43;;;;;;;6.65;3.40;;;;;;;19.68;100.00;99430.13;6302827;22;20007;-77
2022/06/29 00:44:09;;;;;;;7.22;3.35;;;;;;;19.67;100.00;99425.81;6302268;22;20086;-77
2022/06/29 00:46:57;;;;;;;6.35;3.25;;;;;;;19.61;100.00;99421.28;6275005;22;20391;-77
2022/06/29 00:49:24;;;;;;;8.07;4.10;;;;;;;19.59;100.00;99420.66;6303642;22;20363;-77
2022/06/29 00:52:01;;;;;;;8.63;4.20;;;;;;;19.59;100.00;99417.97;6304988;22;19999;-77
2022/06/29 00:54:31;;;;;;;8.18;3.90;;;;;;;19.60;100.00;99420.44;6304460;22;20406;-77
2022/06/29 00:56:59;;;;;;;8.73;3.92;;;;;;;19.62;100.00;99430.94;6278074;22;20378;-77
2022/06/29 00:59:27;;;;;;;10.02;3.83;;;;;;;19.62;100.00;99436.28;6304205;22;20400;-77
2022/06/29 01:01:59;;;;;;;6.38;4.05;;;;;;;19.63;100.00;99435.25;6304005;22;20344;-77
2022/06/29 01:04:26;;;;;;;6.80;3.97;;;;;;;19.66;100.00;99429.50;6304805;22;20045;-76
2022/06/29 01:06:52;;;;;;;9.20;4.55;;;;;;;19.67;100.00;99436.53;6305443;22;20011;-76
2022/06/29 01:09:18;;;;;;;4.30;3.80;;;;;;;19.67;100.00;99436.53;6304647;22;20021;-77
2022/06/29 01:11:44;;;;;;;8.13;4.35;;;;;;;19.71;100.00;99421.69;6305356;22;20004;-78
2022/06/29 01:14:15;;;;;;;5.63;3.92;;;;;;;19.74;100.00;99415.09;6305705;22;20696;-78
2022/06/29 01:16:40;;;;;;;5.57;3.75;;;;;;;19.72;100.00;99412.63;6304865;22;20336;-77
2022/06/29 01:19:09;;;;;;;5.65;3.75;;;;;;;19.60;100.00;99414.28;6304429;22;19999;-76
2022/06/29 01:21:38;;;;;;;6.15;4.22;;;;;;;19.55;100.00;99416.75;6303999;22;20007;-77
2022/06/29 01:24:04;;;;;;;8.55;4.65;;;;;;;19.37;100.00;99416.47;6304884;22;20011;-77
2022/06/29 01:26:30;;;;;;;8.05;4.55;;;;;;;19.25;100.00;99404.69;6305157;22;20098;-77
2022/06/29 01:28:56;;;;;;;6.97;4.32;;;;;;;19.20;100.00;99414.13;6305106;22;20008;-77
2022/06/29 01:31:21;;;;;;;5.63;4.53;;;;;;;19.21;100.00;99413.13;6304123;22;20012;-78
2022/06/29 01:33:48;;;;;;;9.80;4.88;;;;;;;19.28;100.00;99423.00;6304542;22;20034;-78
2022/06/29 01:36:15;;;;;;;13.20;5.25;;;;;;;19.30;100.00;99423.66;6304736;22;20242;-78
2022/06/29 01:38:42;;;;;;;5.57;4.72;;;;;;;19.32;100.00;99424.28;6305586;22;20340;-78
2022/06/29 01:41:10;;;;;;;7.88;4.82;;;;;;;19.37;100.00;99419.13;6305314;22;20011;-78
2022/06/29 01:43:40;;;;;;;9.70;5.45;;;;;;;19.42;100.00;99427.38;6305480;22;20007;-78
2022/06/29 01:46:06;;;;;;;8.40;4.80;;;;;;;19.47;100.00;99423.09;6305421;22;20626;-78
2022/06/29 01:48:32;;;;;;;9.93;5.20;;;;;;;19.50;100.00;99424.53;6304566;22;20317;-78
2022/06/29 01:50:59;;;;;;;7.45;4.05;;;;;;;19.52;100.00;99412.59;6305457;22;20008;-78
2022/06/29 01:53:25;;;;;;;7.20;5.30;;;;;;;19.56;100.00;99410.34;6304960;22;20128;-78
2022/06/29 01:55:51;;;;;;;8.25;4.97;;;;;;;19.57;100.00;99409.31;6305138;22;20368;-78
2022/06/29 01:58:17;;;;;;;7.15;4.40;;;;;;;19.55;100.00;99412.22;6304909;22;20042;-78
2022/06/29 02:00:43;;;;;;;6.68;4.55;;;;;;;19.57;100.00;99410.13;6305359;22;20007;-78
2022/06/29 02:03:13;;;;;;;10.23;4.78;;;;;;;19.55;100.00;99412.22;6304734;22;20319;-78
2022/06/29 02:05:39;;;;;;;7.60;4.82;;;;;;;19.55;100.00;99411.38;6304989;22;20042;-78
2022/06/29 02:08:05;;;;;;;9.45;4.80;;;;;;;19.55;100.00;99411.38;6305385;22;20061;-78
2022/06/29 02:10:31;;;;;;;7.63;4.43;;;;;;;19.56;100.00;99407.66;6305237;22;20723;-78
2022/06/29 02:12:57;;;;;;;11.88;5.72;;;;;;;19.53;100.00;99408.06;6278293;22;20039;-78
2022/06/29 02:15:23;;;;;;;5.70;4.70;;;;;;;19.49;100.00;99401.50;6304747;22;20007;-77
2022/06/29 02:17:50;;;;;;;6.32;4.88;;;;;;;19.45;100.00;99397.53;6304741;22;20019;-78
2022/06/29 02:20:16;;;;;;;10.10;4.78;;;;;;;19.43;100.00;99396.91;6304424;22;20095;-78
2022/06/29 02:22:41;;;;;;;5.55;5.00;;;;;;;19.47;100.00;99392.84;6304905;22;20030;-77
2022/06/29 02:25:08;;;;;;;4.65;4.25;;;;;;;19.50;100.00;99400.44;6304356;22;20037;-77
2022/06/29 02:27:37;;;;;;;6.78;5.13;;;;;;;19.51;100.00;99410.94;6306164;22;20814;-76
2022/06/29 02:30:03;;;;;;;6.10;4.70;;;;;;;19.52;100.00;99411.78;6308029;22;20031;-78
2022/06/29 02:35:13;;;;;;;7.80;4.75;;;;;;;19.47;100.00;99411.56;6306047;22;20019;-79
2022/06/29 02:37:38;;;;;;;11.02;5.00;;;;;;;19.45;100.00;99410.91;6304769;22;20237;-78
2022/06/29 02:40:04;;;;;;;4.63;4.22;;;;;;;19.39;100.00;99411.72;6304130;22;20042;-75
2022/06/29 02:42:30;;;;;;;5.57;4.28;;;;;;;19.40;100.00;99424.06;6276666;22;20011;-78
2022/06/29 02:44:55;;;;;;;8.73;5.55;;;;;;;19.38;100.00;99423.47;6304285;22;20027;-77
2022/06/29 02:47:21;;;;;;;11.02;5.43;;;;;;;19.35;100.00;99418.50;6304025;22;20383;-78
2022/06/29 02:49:46;;;;;;;6.32;5.03;;;;;;;19.30;100.00;99423.66;6303020;22;20057;-77
2022/06/29 02:52:12;;;;;;;7.68;5.57;;;;;;;19.22;100.00;99424.66;6275761;22;20007;-78
2022/06/29 02:54:37;;;;;;;5.97;5.43;;;;;;;19.23;100.00;99435.16;6276153;22;20012;-78
2022/06/29 02:57:03;;;;;;;9.57;6.32;;;;;;;19.21;100.00;99441.72;6304503;22;20325;-78
2022/06/29 02:59:30;;;;;;;7.93;6.97;;;;;;;19.14;100.00;99431.00;6303899;22;20065;-78
2022/06/29 03:01:55;;;;;;;13.15;6.80;;;;;;;19.10;100.00;99429.75;6303856;22;20011;-78
2022/06/29 03:04:21;;;;;;;9.55;6.13;;;;;;;19.08;100.00;99429.16;6303173;22;20020;-77
2022/06/29 03:06:47;;;;;;;8.52;6.07;;;;;;;19.08;100.00;99426.47;6303177;22;20007;-77
2022/06/29 03:09:13;;;;;;;9.10;6.32;;;;;;;19.07;100.00;99424.00;6302642;22;20142;-79
2022/06/29 03:11:38;;;;;;;8.25;6.32;;;;;;;19.02;100.00;99421.09;6303371;22;20037;-78
2022/06/29 03:14:04;;;;;;;10.05;5.93;;;;;;;18.93;100.00;99417.75;6303942;22;20010;-76
2022/06/29 03:16:29;;;;;;;11.10;5.95;;;;;;;18.86;100.00;99418.75;6303489;22;20011;-78
2022/06/29 03:18:55;;;;;;;12.05;6.22;;;;;;;18.82;100.00;99421.00;6303832;22;20038;-78
2022/06/29 03:21:21;;;;;;;12.20;6.22;;;;;;;18.80;100.00;99426.53;6302576;22;20025;-78
2022/06/29 03:23:46;;;;;;;8.45;6.43;;;;;;;18.82;100.00;99421.00;6303443;22;20007;-78
2022/06/29 03:26:13;;;;;;;11.43;6.15;;;;;;;18.86;100.00;99427.59;6303252;22;20007;-78
2022/06/29 03:28:39;;;;;;;7.13;6.28;;;;;;;18.83;100.00;99417.31;6303325;22;20102;-76
2022/06/29 03:31:05;;;;;;;13.82;6.32;;;;;;;18.85;100.00;99409.91;6303489;22;20103;-77
2022/06/29 03:33:30;;;;;;;8.05;5.95;;;;;;;18.63;100.00;99409.19;6302947;22;20086;-78
2022/06/29 03:35:56;;;;;;;11.23;5.85;;;;;;;18.72;100.00;99409.84;6303614;22;20039;-78
2022/06/29 03:38:22;;;;;;;9.00;5.32;;;;;;;18.76;100.00;99411.09;6302733;22;20031;-77
2022/06/29 03:40:48;;;;;;;8.80;5.35;;;;;;;18.69;100.00;99415.59;6302761;22;20030;-76
2022/06/29 03:43:13;;;;;;;11.32;5.45;;;;;;;18.65;100.00;99414.34;6302830;22;20088;-76
2022/06/29 03:45:39;;;;;;;10.60;6.25;;;;;;;18.56;100.00;99412.84;6302816;22;20015;-76
2022/06/29 03:48:05;;;;;;;6.20;5.60;;;;;;;18.45;100.00;99414.19;6303230;22;20018;-75
2022/06/29 03:50:31;;;;;;;13.68;6.45;;;;;;;18.47;100.00;99411.34;6274981;22;20072;-77
2022/06/29 03:52:56;;;;;;;11.82;6.15;;;;;;;18.47;100.00;99414.00;6302370;22;20012;-77
2022/06/29 03:55:22;;;;;;;9.10;6.03;;;;;;;18.45;100.00;99414.19;6301632;22;20033;-77
2022/06/29 03:57:48;;;;;;;8.88;6.72;;;;;;;18.43;100.00;99421.59;6302782;22;20007;-77
2022/06/29 04:00:14;;;;;;;9.68;6.40;;;;;;;18.32;100.00;99417.59;6302788;22;20017;-77
2022/06/29 04:02:40;;;;;;;10.93;5.95;;;;;;;18.31;100.00;99418.66;6303113;22;20504;-77
2022/06/29 04:05:06;;;;;;;10.23;6.43;;;;;;;18.33;100.00;99416.59;6303332;22;20004;-76
2022/06/29 04:07:33;;;;;;;13.32;7.18;;;;;;;18.29;100.00;99415.34;6302730;22;20467;-77
2022/06/29 04:10:01;;;;;;;12.32;6.13;;;;;;;18.29;100.00;99407.31;6302310;22;20042;-76
2022/06/29 04:12:32;;;;;;;9.02;6.72;;;;;;;18.37;100.00;99412.53;6302478;22;20420;-76
2022/06/29 04:14:58;;;;;;;8.18;5.88;;;;;;;18.44;100.00;99409.88;6303132;22;20011;-77
2022/06/29 04:17:24;;;;;;;10.38;6.55;;;;;;;18.48;100.00;99407.63;6302750;22;20007;-77
2022/06/29 04:19:52;;;;;;;6.45;5.90;;;;;;;18.44;100.00;99406.41;6302801;22;20021;-77
2022/06/29 04:22:23;;;;;;;8.15;6.28;;;;;;;18.50;100.00;99400.22;6302561;22;20007;-78
2022/06/29 04:24:49;;;;;;;;;;;;;;;18.37;100.00;99406.34;6302669;22;20014;-76
2022/06/29 04:27:16;;;;;;;9.00;5.20;;;;;;;18.30;100.00;99400.13;6302565;22;19913;-78
2022/06/29 04:29:44;;;;;;;8.63;5.82;;;;;;;18.23;100.00;99402.75;6275423;22;20308;-78
2022/06/29 04:32:10;;;;;;;9.32;5.88;;;;;;;18.19;100.00;99414.03;6302929;22;20019;-76
2022/06/29 04:34:36;;;;;;;10.20;6.13;;;;;;;18.10;100.00;99409.84;6302740;22;20007;-78
2022/06/29 04:37:02;;;;;;;9.40;5.78;;;;;;;18.11;100.00;99406.16;6303316;22;20042;-79
2022/06/29 04:39:28;;;;;;;11.50;6.40;;;;;;;18.14;100.00;99417.28;6301909;22;20706;-77
2022/06/29 04:41:54;;;;;;;8.80;6.57;;;;;;;18.19;100.00;99406.03;6302793;22;20034;-78
2022/06/29 04:44:20;;;;;;;8.38;6.05;;;;;;;18.27;100.00;99406.69;6302485;22;20317;-78
2022/06/29 04:46:45;;;;;;;9.38;5.47;;;;;;;18.42;100.00;99415.44;6275920;22;20007;-78
2022/06/29 04:49:11;;;;;;;8.90;5.50;;;;;;;18.54;100.00;99406.84;6302930;22;20091;-77
2022/06/29 04:51:37;;;;;;;7.47;5.72;;;;;;;18.61;100.00;99405.91;6302914;22;20012;-78
2022/06/29 04:54:04;;;;;;;10.32;5.40;;;;;;;18.64;100.00;99407.34;6275422;22;20041;-78
2022/06/29 04:56:34;;;;;;;10.18;6.28;;;;;;;18.71;100.00;99402.84;6301792;22;20053;-77
2022/06/29 04:59:01;;;;;;;8.43;5.63;;;;;;;18.78;100.00;99403.72;6302883;22;20095;-77
2022/06/29 05:01:29;;;;;;;7.85;6.00;;;;;;;18.83;100.00;99395.09;6302135;22;20011;-77
2022/06/29 05:03:56;;;;;;;8.68;5.10;;;;;;;18.74;100.00;99397.09;6302645;22;20331;-78
2022/06/29 05:06:22;;;;;;;10.18;4.70;;;;;;;18.73;100.00;99395.47;6274985;22;20390;-78
2022/06/29 05:08:49;;;;;;;8.38;4.80;;;;;;;18.80;100.00;99390.97;6302768;22;20065;-78
2022/06/29 05:11:15;;;;;;;8.00;4.70;;;;;;;18.85;100.00;99388.50;6274611;22;20018;-78
2022/06/29 05:13:42;;;;;;;5.78;4.93;;;;;;;18.92;100.00;99389.38;6302859;22;20684;-77
2022/06/29 05:16:08;;;;;;;5.78;4.95;;;;;;;19.02;100.00;99387.16;6302799;22;20003;-79
2022/06/29 05:18:34;;;;;;;6.25;3.72;;;;;;;19.10;100.00;99386.97;6275475;22;20531;-79
2022/06/29 05:21:00;;;;;;;6.80;3.97;;;;;;;19.16;100.00;99391.50;6302924;22;20008;-79
2022/06/29 05:23:29;;;;;;;10.10;4.88;;;;;;;19.22;100.00;99382.66;6302428;22;20004;-79
2022/06/29 05:25:55;;;;;;;7.78;4.85;;;;;;;19.23;100.00;99378.97;6302316;22;20015;-79
2022/06/29 05:28:21;;;;;;;5.55;4.30;;;;;;;19.28;100.00;99372.19;6274722;22;20331;-77
2022/06/29 05:30:46;;;;;;;5.68;3.83;;;;;;;19.28;100.00;99378.34;6303053;22;20007;-76
2022/06/29 05:33:12;;;;;;;5.40;4.10;;;;;;;19.25;100.00;99373.44;6303325;22;20027;-78
2022/06/29 05:35:38;;;;;;;6.35;3.78;;;;;;;19.21;100.00;99373.00;6277586;22;20008;-79
2022/06/29 05:38:04;;;;;;;6.60;3.63;;;;;;;19.33;100.00;99364.38;6304946;22;20011;-78
2022/06/29 05:40:30;;;;;;;5.82;3.88;;;;;;;19.39;100.00;99374.25;6304174;22;20030;-73
2022/06/29 05:43:00;;;;;;;5.32;3.90;;;;;;;19.49;100.00;99369.38;6304645;22;19999;-73
2022/06/29 05:45:26;;;;;;;6.70;4.03;;;;;;;19.50;100.00;99371.00;6304246;22;20233;-73
2022/06/29 05:47:56;;;;;;;5.70;4.35;;;;;;;19.47;100.00;99368.75;6304919;22;20362;-74
2022/06/29 05:50:22;;;;;;;7.80;4.80;;;;;;;19.49;100.00;99364.03;6304626;22;20352;-73
2022/06/29 05:52:48;;;;;;;9.35;4.15;;;;;;;19.35;100.00;99373.03;6277650;22;20007;-73
2022/06/29 05:55:14;;;;;;;6.32;4.53;;;;;;;19.53;100.00;99367.94;6304678;22;20019;-73
2022/06/29 05:57:39;;;;;;;8.93;4.03;;;;;;;19.63;100.00;99363.81;6304411;22;20015;-73
2022/06/29 06:00:06;;;;;;;4.85;4.40;;;;;;;19.74;100.00;99367.72;6304653;22;20138;-73
2022/06/29 06:02:38;;;;;;;13.85;5.45;;;;;;;19.74;100.00;99373.06;6304426;22;20125;-73
2022/06/29 06:05:04;;;;;;;8.18;4.70;;;;;;;19.79;100.00;99370.59;6304722;22;20038;-76
2022/06/29 06:07:30;;;;;;;6.22;4.22;;;;;;;19.83;100.00;99361.16;6304387;22;20011;-73
2022/06/29 06:09:55;;;;;;;13.20;6.40;;;;;;;19.85;100.00;99352.91;6304728;22;20008;-73
2022/06/29 06:12:21;;;;;;;12.48;5.75;;;;;;;19.87;100.00;99351.66;6277112;22;20095;-76
2022/06/29 06:14:47;;;;;;;10.45;5.55;;;;;;;19.88;100.00;99358.66;6276812;22;20011;-76
2022/06/29 06:17:12;;;;;;;10.88;6.13;;;;;;;19.96;100.00;99353.09;6251288;22;20042;-74
2022/06/29 06:19:38;;;;;;;7.03;5.32;;;;;;;19.99;100.00;99363.38;6304485;22;20010;-73
2022/06/29 06:22:03;;;;;;;11.07;5.68;;;;;;;20.15;100.00;99369.31;6277403;22;20015;-73
2022/06/29 06:24:29;;;;;;;8.10;6.13;;;;;;;20.21;100.00;99363.13;6304180;22;20007;-74
2022/06/29 06:26:54;;;;;;;8.10;6.38;;;;;;;20.29;100.00;99365.59;6304394;22;20011;-74
2022/06/29 06:29:20;;;;;;;11.32;6.82;;;;;;;20.35;100.00;99357.59;6303889;22;20031;-75
2022/06/29 06:31:46;;;;;;;9.75;6.15;;;;;;;20.39;100.00;99350.75;6277218;22;20022;-74
2022/06/29 06:34:12;;;;;;;11.25;6.68;;;;;;;20.50;100.00;99351.97;6302101;22;20096;-73
2022/06/29 06:36:37;;;;;;;14.95;5.95;;;;;;;20.51;100.00;99350.94;6276980;22;20013;-75
2022/06/29 06:39:03;;;;;;;9.90;5.90;;;;;;;20.60;100.00;99346.16;6304407;22;20007;-75
2022/06/29 06:41:28;;;;;;;9.25;5.15;;;;;;;20.68;100.00;99354.78;6304266;22;20086;-74
2022/06/29 06:43:56;;;;;;;11.68;5.85;;;;;;;20.75;100.00;99350.22;6304368;22;20011;-74
2022/06/29 06:46:23;;;;;;;10.45;5.50;;;;;;;20.82;100.00;99351.03;6304112;22;20302;-73
2022/06/29 06:48:53;;;;;;;8.52;5.90;;;;;;;20.81;100.00;99344.00;6304594;22;20015;-74
2022/06/29 06:51:23;;;;;;;9.52;5.95;;;;;;;20.87;100.00;99341.50;6304642;22;20009;-74
2022/06/29 06:53:49;;;;;;;;;;;;;;;20.88;100.00;99348.50;6306068;22;20007;-76
2022/06/29 06:56:15;;;;;;;9.63;5.03;;;;;;;20.90;100.00;99341.09;6304473;22;19990;-74
2022/06/29 06:58:41;;;;;;;9.07;4.78;;;;;;;20.97;100.00;99336.50;6304755;22;20045;-75
2022/06/29 07:01:08;;;;;;;6.50;4.68;;;;;;;21.05;100.00;99339.75;6304084;22;20007;-75
2022/06/29 07:03:36;;;;;;;6.65;4.68;;;;;;;21.14;100.00;99340.34;6276639;22;20008;-74
2022/06/29 07:06:06;;;;;;;7.03;5.00;;;;;;;21.15;100.00;99344.66;6305266;22;20340;-75
2022/06/29 07:08:32;;;;;;;;;;;;;;;21.19;100.00;99340.53;6305069;22;20693;-75
2022/06/29 07:11:02;;;;;;;7.90;4.60;;;;;;;21.28;100.00;99343.75;6304110;22;19933;-74
2022/06/29 07:13:28;;;;;;;12.05;4.45;;;;;;;21.36;100.00;99340.81;6303909;22;20304;-73
2022/06/29 07:15:54;;;;;;;6.20;4.28;;;;;;;21.41;100.00;99341.81;6304063;22;20077;-75
2022/06/29 07:18:20;;;;;;;5.07;4.00;;;;;;;21.49;100.00;99346.94;6303686;22;20003;-75
2022/06/29 07:20:45;;;;;;;7.43;4.00;;;;;;;21.52;100.00;99345.66;6303881;22;20011;-75
2022/06/29 07:23:11;;;;;;;7.10;4.03;;;;;;;21.60;100.00;99343.53;6303804;22;20082;-74
2022/06/29 07:25:36;;;;;;;7.10;4.47;;;;;;;21.60;100.00;99348.09;6303049;22;20015;-76
2022/06/29 07:28:02;;;;;;;5.78;4.28;;;;;;;21.63;100.00;99335.03;6303856;22;20409;-76
2022/06/29 07:30:28;;;;;;;6.82;3.67;;;;;;;21.72;100.00;99340.97;6302911;22;20014;-75
2022/06/29 07:32:53;;;;;;;6.70;3.50;;;;;;;21.82;100.00;99335.09;6303017;22;20432;-75
2022/06/29 07:35:19;;;;;;;11.45;3.70;;;;;;;21.88;100.00;99323.44;6302855;22;20019;-75
2022/06/29 07:37:44;;;;;;;3.88;3.03;;;;;;;21.89;100.00;99325.09;6303576;22;20053;-75
2022/06/29 07:40:10;;;;;;;6.53;3.25;;;;;;;21.94;100.00;99317.19;6303040;22;20008;-75
2022/06/29 07:42:36;;;;;;;4.30;3.40;;;;;;;22.01;100.00;99312.63;6303686;22;20067;-74
2022/06/29 07:45:06;;;;;;;6.10;3.42;;;;;;;22.10;100.00;99315.81;6303467;22;20030;-75
2022/06/29 07:47:32;;;;;;;6.47;3.67;;;;;;;21.99;100.00;99306.63;6303207;22;20444;-74
2022/06/29 07:49:59;;;;;;;6.22;3.20;;;;;;;22.05;100.00;99306.56;6303304;22;20017;-75
2022/06/29 07:52:25;;;;;;;8.15;3.05;;;;;;;22.11;100.00;99307.53;6303409;22;20068;-74
2022/06/29 07:54:51;;;;;;;4.80;2.70;;;;;;;22.23;100.00;99305.75;6303316;22;20007;-74
2022/06/29 07:57:17;;;;;;;5.43;3.08;;;;;;;22.28;100.00;99307.75;6276048;22;20015;-74
2022/06/29 07:59:44;;;;;;;9.52;2.65;;;;;;;22.36;100.00;99299.41;6303745;22;20057;-74
2022/06/29 08:02:10;;;;;;;4.25;2.65;;;;;;;22.40;100.00;99301.41;6303379;22;20003;-74
2022/06/29 08:04:36;;;;;;;6.65;2.58;;;;;;;22.50;100.00;99305.47;6302469;22;20337;-74
2022/06/29 08:07:02;;;;;;;6.68;2.55;;;;;;;22.58;100.00;99307.81;6303490;22;20015;-74
2022/06/29 08:09:28;;;;;;;7.95;3.28;;;;;;;22.64;100.00;99306.91;6303192;22;20003;-74
2022/06/29 08:11:53;;;;;;;7.60;2.90;;;;;;;22.61;100.00;99297.44;6302839;22;20011;-74
2022/06/29 08:14:19;;;;;;;7.32;3.30;;;;;;;22.68;100.00;99297.38;6302871;22;20008;-74
2022/06/29 08:16:47;;;;;;;5.57;3.03;;;;;;;22.76;100.00;99299.75;6303667;22;20023;-75
2022/06/29 08:19:13;;;;;;;6.18;3.33;;;;;;;22.83;100.00;99308.56;6303165;22;20060;-74
2022/06/29 08:21:38;;;;;;;4.57;2.75;;;;;;;22.89;100.00;99302.28;6302362;22;20015;-73
2022/06/29 08:24:04;;;;;;;5.68;2.72;;;;;;;22.94;100.00;99294.34;6275433;22;20023;-74
2022/06/29 08:26:30;;;;;;;5.50;2.60;;;;;;;23.00;100.00;99293.41;6302264;22;20011;-74
2022/06/29 08:28:55;;;;;;;2.85;2.42;;;;;;;23.07;100.00;99296.00;6303203;22;20086;-74
2022/06/29 08:31:21;;;;;;;6.60;2.63;;;;;;;23.13;100.00;99290.53;6302829;22;20008;-74
2022/06/29 08:33:46;;;;;;;6.28;2.25;;;;;;;23.17;100.00;99290.88;6302891;22;20007;-73
2022/06/29 08:36:12;;;;;;;5.47;2.95;;;;;;;23.24;100.00;99291.63;6303009;22;19999;-73
2022/06/29 08:38:39;;;;;;;5.60;2.45;;;;;;;23.27;100.00;99286.56;6302919;22;20080;-72
2022/06/29 08:41:05;;;;;;;3.90;2.40;;;;;;;23.36;100.00;99289.75;6275318;22;20034;-73
2022/06/29 08:43:32;;;;;;;7.03;2.20;;;;;;;23.43;100.00;99290.47;6302368;22;20455;-73
2022/06/29 08:45:58;;;;;;;6.78;2.60;;;;;;;23.50;100.00;99285.03;6275830;22;20072;-73
2022/06/29 08:48:24;;;;;;;5.45;2.42;;;;;;;23.50;100.00;99290.41;6302923;22;20152;-73
2022/06/29 08:50:52;;;;;;;4.30;2.47;;;;;;;23.57;100.00;99288.41;6302680;22;20459;-73
2022/06/29 08:53:17;;;;;;;4.63;2.00;;;;;;;23.64;100.00;99281.03;6302553;22;20410;-73
2022/06/29 08:55:45;;;;;;;4.85;2.13;;;;;;;23.72;100.00;99277.19;6302758;22;20087;-73
2022/06/29 08:58:15;;;;;;;3.22;2.30;;;;;;;23.74;100.00;99280.47;6303448;22;20589;-74
2022/06/29 09:00:41;;;;;;;3.92;2.30;;;;;;;23.74;100.00;99281.25;6303347;22;20057;-77
2022/06/29 09:03:06;;;;;;;5.38;2.05;;;;;;;23.85;100.00;99280.47;6303268;22;20086;-73
2022/06/29 09:05:33;;;;;;;5.72;2.10;;;;;;;23.90;100.00;99277.88;6275148;22;20046;-76
2022/06/29 09:07:59;;;;;;;4.20;2.50;;;;;;;23.93;100.00;99280.09;6302603;22;20522;-76
2022/06/29 09:10:29;;;;;;;6.85;2.50;;;;;;;23.86;99.30;99274.00;6304532;22;20439;-74
2022/06/29 09:12:57;;;;;;;4.10;2.15;;;;;;;23.95;98.52;99278.00;6305120;22;20035;-74
2022/06/29 09:15:32;;;;;;;2.92;2.10;;;;;;;24.05;100.00;99277.38;6304564;22;20463;-74
2022/06/29 09:17:58;;;;;;;4.95;2.05;;;;;;;24.16;98.72;99283.81;6305195;22;20347;-74
2022/06/29 09:20:24;;;;;;;5.63;2.10;;;;;;;24.17;99.00;99277.38;6304698;22;20074;-73
2022/06/29 09:22:57;;;;;;;4.68;1.90;;;;;;;24.18;97.94;99271.78;6304208;22;20017;-73
2022/06/29 09:25:26;;;;;;;9.35;2.03;;;;;;;24.25;97.71;99271.66;6303601;22;20014;-73
2022/06/29 09:27:55;;;;;;;4.68;2.00;;;;;;;24.26;98.87;99267.91;6304986;22;20011;-74
2022/06/29 09:30:27;;;;;;;5.60;2.10;;;;;;;24.30;99.05;99274.44;6305008;22;20007;-74
2022/06/29 09:33:00;;;;;;;5.15;2.28;;;;;;;24.37;96.63;99272.44;6305578;22;20328;-73
2022/06/29 09:35:26;;;;;;;4.60;2.13;;;;;;;24.48;96.57;99276.97;6304583;22;20053;-75
2022/06/29 09:37:54;;;;;;;5.25;2.25;;;;;;;24.53;97.05;99268.16;6305114;22;20003;-74
2022/06/29 09:40:19;;;;;;;4.15;1.92;;;;;;;24.55;97.59;99272.25;6304603;22;20336;-73
2022/06/29 09:42:45;;;;;;;2.72;1.83;;;;;;;24.59;98.17;99265.31;6305611;22;20007;-74
2022/06/29 09:45:10;;;;;;;5.25;1.95;;;;;;;24.64;99.06;99268.13;6305070;22;20042;-74
2022/06/29 09:47:38;;;;;;;6.82;2.58;;;;;;;24.72;95.33;99262.34;6304918;22;20003;-77
2022/06/29 09:50:08;;;;;;;3.15;2.03;;;;;;;24.68;96.34;99261.16;6305427;22;20352;-77
2022/06/29 09:52:37;;;;;;;3.88;2.30;;;;;;;24.74;96.97;99260.19;6304543;22;20090;-77
2022/06/29 09:55:06;;;;;;;4.88;2.03;;;;;;;24.84;95.63;99265.81;6304610;22;20041;-75
2022/06/29 09:57:35;;;;;;;5.57;1.90;;;;;;;24.88;95.66;99264.28;6304416;22;20145;-74
2022/06/29 10:02:48;;;;;;;5.47;1.80;;;;;;;25.05;92.48;99261.59;6305098;22;20328;-75
2022/06/29 10:05:15;;;;;;;6.65;2.45;;;;;;;25.04;91.60;99259.16;6304920;22;20014;-75
2022/06/29 10:07:43;;;;;;;5.72;2.33;;;;;;;25.08;92.44;99255.75;6305046;22;20090;-75
2022/06/29 10:10:11;;;;;;;5.32;2.17;;;;;;;25.15;93.17;99256.38;6304700;22;20371;-75
2022/06/29 10:16:00;;;;;;;5.75;1.77;;;;;;;25.52;89.07;99256.72;6305625;22;20375;-74
2022/06/29 10:19:02;;;;;;;4.70;2.10;;;;;;;25.59;88.25;99246.59;6304677;22;20007;-75
2022/06/29 10:21:30;;;;;;;5.35;1.98;;;;;;;25.62;87.38;99248.00;6304519;22;20352;-74
2022/06/29 10:23:57;;;;;;;6.32;1.95;;;;;;;25.76;84.53;99245.75;6304202;22;20018;-75
2022/06/29 10:26:32;;;;;;;5.15;2.35;;;;;;;25.86;79.69;99246.69;6276141;22;20078;-75
2022/06/29 10:29:10;;;;;;;12.30;2.47;;;;;;;25.94;78.90;99248.16;6277371;22;20015;-74
2022/06/29 10:31:51;;;;;;;5.43;1.63;;;;;;;26.00;80.82;99241.75;6304920;22;20317;-74
2022/06/29 10:34:32;;;;;;;7.22;2.05;;;;;;;25.98;80.76;99238.47;6304051;22;20082;-75
2022/06/29 10:37:08;;;;;;;8.18;1.98;;;;;;;25.89;78.74;99235.41;6305248;22;20309;-76
2022/06/29 10:39:49;;;;;;;11.63;2.42;;;;;;;25.92;77.72;99237.59;6304353;22;20458;-75
2022/06/29 10:45:07;;;;;;;;;;;;;;;26.03;77.09;99225.03;6305828;22;20086;-75
2022/06/29 10:47:33;;;;;;;5.63;1.92;;;;;;;26.06;78.09;99219.13;6304355;22;19911;-76
2022/06/29 10:50:34;;;;;;;9.40;2.03;;;;;;;26.10;78.73;99214.84;6304699;22;20493;-75
2022/06/29 10:53:11;;;;;;;10.55;2.05;;;;;;;26.12;75.92;99218.13;6303921;22;20335;-76
2022/06/29 10:55:39;;;;;;;4.32;1.80;;;;;;;26.12;77.21;99211.88;6303905;22;20621;-76
2022/06/29 10:58:05;;;;;;;7.63;2.22;;;;;;;26.13;77.43;99211.66;6304756;22;20003;-75
2022/06/29 11:00:42;;;;;;;3.17;2.03;;;;;;;26.17;77.99;99210.06;6304575;22;20011;-75
2022/06/29 11:03:19;;;;;;;4.65;1.75;;;;;;;26.21;79.33;99203.09;6304674;22;20385;-75
2022/06/29 11:14:02;;;;;;;6.65;2.10;;;;;;;26.44;75.57;99205.56;6303821;22;20056;-75
2022/06/29 11:16:37;;;;;;;9.27;2.60;;;;;;;26.47;78.11;99199.63;6276544;22;20010;-76
2022/06/29 11:19:04;;;;;;;7.13;2.15;;;;;;;26.61;76.69;99210.06;6303926;22;20427;-78
2022/06/29 11:21:30;;;;;;;7.18;2.22;;;;;;;26.61;76.83;99201.94;6302966;22;20090;-75
2022/06/29 11:24:03;;;;;;;6.88;2.00;;;;;;;26.59;76.75;99195.94;6303881;22;20011;-76
2022/06/29 11:26:29;;;;;;;4.55;2.15;;;;;;;26.64;77.54;99193.28;6276181;22;20003;-75
2022/06/29 11:28:57;;;;;;;6.05;2.50;;;;;;;26.74;77.85;99196.13;6303431;22;20014;-77
2022/06/29 11:31:23;;;;;;;8.50;2.45;;;;;;;26.80;77.77;99186.97;6302863;22;20007;-76
2022/06/29 11:33:50;;;;;;;3.90;2.13;;;;;;;26.94;77.77;99188.19;6303122;22;20304;-75
2022/06/29 11:36:25;;;;;;;5.35;1.98;;;;;;;27.01;75.64;99183.38;6276143;22;20013;-76
2022/06/29 11:39:03;;;;;;;4.93;2.25;;;;;;;27.04;76.85;99182.06;6303837;22;20047;-77
2022/06/29 11:44:30;;;;;;;5.13;2.35;;;;;;;27.33;73.24;99179.84;6239979;22;20015;-75
2022/06/29 11:46:56;;;;;;;4.10;1.92;;;;;;;27.30;74.89;99179.28;6303542;22;20014;-77
2022/06/29 11:49:36;;;;;;;5.18;2.47;;;;;;;27.34;75.63;99176.03;6302881;22;20011;-77